Aérodrome :
LOGIN :

S'inscrire | Disclaimer

   EN    FR    IT 

 










Légende :    VFR   VFR Marginal   IFR   IFR Intensif   IFR Très Intensif
Visi : 
Plafond : 
>= 8 km
>= 3000ft
5 à 8 km
1000 à 3000 ft
1500m à 5 km
500 à 1000 ft
800 à 1500m
200 à 500 ft
< 800m
< 200 ft
Symboles :   Orages  Brouillard  Fortes neiges  Fortes précipitations  Vent > 20 kt
SIGMETs :   Divers  Orages  Givrage  Turbulence  Onde Orograph.  Cendres Volcan.







- Altitude de l'aérodrome : -11 ft
- Code IATA : AMS


EHAM - Amsterdam Schiphol

DERNIER METAR :
  • 181455Z 25014KT 220V280 9999 FEW016 SCT030 20/13 Q1010 TEMPO 7000 -RA

METARs EXPIRÉS :
  • 181425Z 25013KT 220V290 9999 FEW017 SCT022 20/14 Q1010 TEMPO 7000 -RA BKN020
  • 181355Z 24013KT 210V270 9999 FEW020 SCT025 21/14 Q1010 TEMPO 7000 -RA BKN020
  • 181325Z 25012KT 210V290 9999 FEW025 SCT038 21/15 Q1010 NOSIG
  • 181255Z 21013KT 180V250 9999 SCT024 22/14 Q1010 NOSIG
  • 181225Z 23010KT 190V260 9999 SCT022 21/15 Q1010 NOSIG
  • 181155Z 24009KT 200V290 9999 FEW021 21/15 Q1010 NOSIG

TAF TAF EHAM
Valide du 18 à 12h jusqu'au 19 à 18h UTC


181103Z 1812/1918 25013KT 9999 SCT025
BECMG 1815/1818 23006KT 6000 RA BKN018 OVC025
PROB40 1818/1821 4500 -RA -SHRA BKN008 SCT018TCU
BECMG 1901/1904 2000 BR NSC
BECMG 1905/1908 9999 NSW SCT020
BECMG 1912/1915 27010KT
Pas de NOTAMs connus pour ce terrain.



MET'MAP, la Météo Aéronautique d'un coup d'oeil ! - Copyright ORBIFLY Décembre 2007 - Disclaimer

ORBIFLY MET'MAP TEAM :

Programmation & Développement : Alexandra Zaïnal
Conception & Développement : Baudouin d'Aumeries
Co-Programmation & Développement : Marc-Olivier Méhu
Soutien technique & logistique : Manuel Goepfert

Contact : metmap@orbifly.com




SOURCES & CREDITS :

   NOAA